Time;durP1;ratioP1;P1;durP2;ratioP2;P2;SDS_P1;SDS_P2;PMS_P1;PMS_P2;Temp;Humidity;BMP_temperature;BMP_pressure;BME280_temperature;BME280_humidity;BME280_pressure;Samples;Min_cycle;Max_cycle;Signal;HPM_P1;HPM_P2
2020/12/02 00:00:07;;;;;;;;;;;;;;;8.86;29.20;94843.66;5063674;28;20049;-53
2020/12/02 00:02:50;;;;;;;124.85;74.93;;;;;;;8.85;28.91;94842.09;5057671;28;19920;-53
2020/12/02 00:05:18;;;;;;;148.10;90.68;;;;;;;8.88;28.73;94839.75;5056821;28;20329;-52
2020/12/02 00:07:47;;;;;;;132.93;80.70;;;;;;;8.81;28.91;94841.81;5057711;28;20052;-51
2020/12/02 00:10:14;;;;;;;160.07;95.97;;;;;;;8.60;29.15;94835.88;5055908;28;20045;-55
2020/12/02 00:12:41;;;;;;;181.90;113.43;;;;;;;8.62;29.02;94838.19;5059542;28;20071;-52
2020/12/02 00:15:09;;;;;;;164.15;102.07;;;;;;;8.73;28.89;94844.19;5077080;28;20363;-52
2020/12/02 00:17:37;;;;;;;160.98;98.30;;;;;;;8.57;29.21;94833.75;5077533;28;20336;-53
2020/12/02 00:20:06;;;;;;;156.48;93.65;;;;;;;8.80;28.59;94842.06;5059361;28;20049;-54
2020/12/02 00:22:35;;;;;;;159.25;96.35;;;;;;;8.74;28.65;94848.34;5077355;28;20044;-55
2020/12/02 00:25:05;;;;;;;150.10;94.15;;;;;;;8.70;28.54;94840.28;5077408;28;20048;-53
2020/12/02 00:27:33;;;;;;;145.87;90.90;;;;;;;8.64;28.54;94831.69;5076324;28;20051;-55
2020/12/02 00:30:00;;;;;;;144.52;88.80;;;;;;;8.45;28.48;94829.88;5076815;28;20059;-53
2020/12/02 00:32:30;;;;;;;144.00;89.87;;;;;;;8.42;28.97;94840.81;5077105;28;20448;-53
2020/12/02 00:34:58;;;;;;;150.77;91.03;;;;;;;8.17;29.66;94846.75;5077151;28;20048;-52
2020/12/02 00:37:26;;;;;;;144.68;88.20;;;;;;;8.63;28.34;94837.94;5077199;28;20254;-53
2020/12/02 00:39:54;;;;;;;154.38;94.28;;;;;;;8.46;28.87;94834.81;5076739;28;20060;-55
2020/12/02 00:42:22;;;;;;;156.70;93.37;;;;;;;8.67;28.40;94843.41;5076499;28;20478;-52
2020/12/02 00:44:50;;;;;;;150.32;93.78;;;;;;;8.53;28.60;94845.75;5076630;28;20477;-54
2020/12/02 00:47:24;;;;;;;162.23;93.47;;;;;;;8.53;28.02;94834.53;5076993;28;20053;-53
2020/12/02 00:49:54;;;;;;;149.30;90.87;;;;;;;8.27;28.32;94839.72;5058180;28;20363;-52
2020/12/02 00:52:23;;;;;;;149.23;88.90;;;;;;;8.24;28.70;94834.25;5056909;28;20052;-53
2020/12/02 00:54:50;;;;;;;150.33;90.87;;;;;;;8.00;29.13;94837.34;5056106;28;20060;-52
2020/12/02 00:57:24;;;;;;;141.07;86.90;;;;;;;8.19;29.00;94834.25;5039230;28;20052;-53
2020/12/02 00:59:55;;;;;;;142.07;86.77;;;;;;;7.97;28.36;94837.84;5038804;28;20045;-52
2020/12/02 01:02:34;;;;;;;148.23;86.00;;;;;;;7.92;28.70;94830.03;5039185;28;20060;-53
2020/12/02 01:05:03;;;;;;;137.23;84.53;;;;;;;7.93;28.71;94836.81;5056656;28;20045;-50
2020/12/02 01:07:30;;;;;;;140.50;86.50;;;;;;;7.89;27.80;94833.16;5056604;28;20059;-52
2020/12/02 01:09:57;;;;;;;143.57;82.57;;;;;;;7.81;28.57;94843.31;5056028;28;20048;-53
2020/12/02 01:12:24;;;;;;;137.10;82.50;;;;;;;7.86;28.52;94828.47;5056325;28;20065;-53
2020/12/02 01:14:51;;;;;;;138.60;82.67;;;;;;;7.63;28.89;94828.94;5056139;28;20053;-54
2020/12/02 01:17:18;;;;;;;133.10;82.57;;;;;;;8.08;28.38;94830.06;5056472;28;20049;-54
2020/12/02 01:19:46;;;;;;;149.27;88.40;;;;;;;8.04;28.85;94822.75;5065152;28;20397;-55
2020/12/02 01:22:25;;;;;;;139.20;83.60;;;;;;;7.95;28.62;94833.94;5076317;28;20048;-55
2020/12/02 01:25:19;;;;;;;135.27;81.97;;;;;;;8.11;27.70;94834.78;5058559;28;20052;-51
2020/12/02 01:28:06;;;;;;;138.17;83.83;;;;;;;8.31;27.74;94832.16;5076110;28;20051;-55
2020/12/02 01:30:37;;;;;;;142.30;81.43;;;;;;;8.19;28.43;94834.25;5057918;28;20443;-51
2020/12/02 01:33:04;;;;;;;134.80;79.50;;;;;;;8.10;28.39;94841.03;5058487;28;20052;-53
2020/12/02 01:35:32;;;;;;;136.90;79.80;;;;;;;8.04;28.76;94833.19;5075946;28;20063;-53
2020/12/02 01:38:04;;;;;;;134.87;77.27;;;;;;;8.07;28.64;94831.09;5075615;28;20044;-52
2020/12/02 01:40:34;;;;;;;118.87;72.27;;;;;;;7.98;28.94;94834.22;5057386;28;20060;-55
2020/12/02 01:43:04;;;;;;;118.97;71.13;;;;;;;7.93;28.63;94842.03;5075678;28;20047;-55
2020/12/02 01:45:36;;;;;;;121.07;71.83;;;;;;;8.08;28.33;94837.91;5075798;28;20056;-55
2020/12/02 01:48:24;;;;;;;116.17;67.73;;;;;;;7.88;28.28;94839.41;5075728;28;20055;-53
2020/12/02 01:51:12;;;;;;;108.43;64.47;;;;;;;8.05;28.50;94833.97;5057511;28;20051;-55
2020/12/02 01:54:09;;;;;;;103.23;61.53;;;;;;;8.22;28.42;94838.94;5075720;28;20041;-54
2020/12/02 01:56:37;;;;;;;99.97;59.90;;;;;;;8.22;27.59;94834.50;5057847;28;20090;-53
2020/12/02 01:59:19;;;;;;;103.77;61.27;;;;;;;8.22;27.72;94829.28;5057883;28;20048;-54
2020/12/02 02:02:04;;;;;;;98.03;59.07;;;;;;;8.35;28.20;94833.25;5057851;28;20052;-53
2020/12/02 02:04:53;;;;;;;113.23;66.30;;;;;;;7.80;27.65;94837.28;5057205;28;20052;-56
2020/12/02 02:07:24;;;;;;;121.90;75.47;;;;;;;7.72;28.85;94837.81;5074306;28;20048;-52
2020/12/02 02:09:57;;;;;;;116.87;73.23;;;;;;;7.98;27.74;94838.63;5075298;28;20055;-54
2020/12/02 02:12:47;;;;;;;119.97;73.97;;;;;;;7.61;27.65;94831.78;5057570;28;20060;-53
2020/12/02 02:15:35;;;;;;;118.20;70.80;;;;;;;7.70;27.15;94834.66;5060662;28;20382;-54
2020/12/02 02:18:07;;;;;;;109.20;65.70;;;;;;;7.60;27.53;94845.06;5072517;28;20044;-52
2020/12/02 02:20:40;;;;;;;99.75;62.97;;;;;;;7.53;28.18;94847.88;5074971;28;20071;-54
2020/12/02 02:23:11;;;;;;;108.82;67.63;;;;;;;7.65;28.42;94839.88;5075357;28;20044;-54
2020/12/02 02:25:39;;;;;;;102.63;60.90;;;;;;;7.66;27.77;94836.22;5075261;28;20382;-52
2020/12/02 02:28:07;;;;;;;107.63;64.63;;;;;;;7.85;28.49;94839.94;5075266;28;20065;-53
2020/12/02 02:30:34;;;;;;;106.97;63.10;;;;;;;7.99;28.42;94848.00;5057252;28;20056;-55
2020/12/02 02:33:01;;;;;;;114.57;68.50;;;;;;;8.12;27.62;94844.94;5075273;28;20048;-53
2020/12/02 02:35:29;;;;;;;111.43;68.13;;;;;;;8.04;27.98;94842.81;5074356;28;20067;-52
2020/12/02 02:37:56;;;;;;;107.13;64.97;;;;;;;8.15;28.13;94843.63;5057408;28;20056;-54
2020/12/02 02:40:23;;;;;;;114.20;68.10;;;;;;;7.79;28.52;94838.31;5074967;28;20055;-52
2020/12/02 02:42:51;;;;;;;108.82;65.32;;;;;;;7.92;28.30;94837.84;5054754;28;20056;-52
2020/12/02 02:45:26;;;;;;;114.20;74.47;;;;;;;8.11;28.52;94847.78;5055025;28;20048;-53
2020/12/02 02:47:55;;;;;;;108.53;68.60;;;;;;;8.10;28.43;94841.03;5071874;28;20052;-50
2020/12/02 02:50:24;;;;;;;105.03;67.80;;;;;;;8.89;27.56;94849.13;5064642;28;20056;-52
2020/12/02 02:52:51;;;;;;;92.78;58.55;;;;;;;8.87;28.14;94851.22;5054785;28;20048;-53
2020/12/02 02:55:26;;;;;;;98.87;63.63;;;;;;;8.65;28.27;94858.53;5037268;28;20048;-53
2020/12/02 02:57:54;;;;;;;100.80;65.10;;;;;;;8.94;28.04;94850.94;5071416;28;20055;-53
2020/12/02 03:00:26;;;;;;;94.05;59.25;;;;;;;8.71;28.30;94851.47;5055806;28;20052;-52
2020/12/02 03:02:53;;;;;;;88.07;57.13;;;;;;;8.89;28.08;94848.34;5054785;28;20055;-51
2020/12/02 03:05:20;;;;;;;90.33;56.33;;;;;;;8.91;27.91;94851.47;5054840;28;20048;-52
2020/12/02 03:07:54;;;;;;;90.95;57.17;;;;;;;8.64;28.45;94841.31;5070282;28;20067;-53
2020/12/02 03:10:29;;;;;;;92.07;57.23;;;;;;;8.51;28.91;94842.63;5074656;28;20059;-51
2020/12/02 03:12:58;;;;;;;91.07;56.20;;;;;;;8.59;28.94;94849.94;5053660;28;20055;-52
2020/12/02 03:15:25;;;;;;;88.93;56.43;;;;;;;9.01;28.28;94851.44;5054599;28;20045;-53
2020/12/02 03:17:53;;;;;;;88.10;56.17;;;;;;;8.94;28.12;94846.50;5072418;28;20064;-55
2020/12/02 03:20:28;;;;;;;92.57;58.23;;;;;;;8.78;28.68;94852.00;5060855;28;20052;-54
2020/12/02 03:22:55;;;;;;;83.57;53.97;;;;;;;8.92;28.46;94858.25;5061010;28;20053;-53
2020/12/02 03:25:25;;;;;;;82.00;51.17;;;;;;;8.77;28.86;94851.22;5060864;28;20045;-54
2020/12/02 03:27:52;;;;;;;83.55;53.65;;;;;;;8.70;28.80;94845.47;5078107;28;20052;-54
2020/12/02 03:30:19;;;;;;;83.85;53.53;;;;;;;8.72;28.81;94853.03;5078210;28;20045;-55
2020/12/02 03:32:47;;;;;;;78.93;51.15;;;;;;;8.80;28.83;94840.25;5078210;28;20048;-52
2020/12/02 03:35:14;;;;;;;76.45;48.28;;;;;;;8.79;28.40;94843.13;5060663;28;20052;-53
2020/12/02 03:37:41;;;;;;;78.80;50.08;;;;;;;8.71;28.39;94843.66;5077970;28;20375;-53
2020/12/02 03:40:09;;;;;;;81.65;50.53;;;;;;;8.62;28.62;94849.41;5078104;28;20462;-54
2020/12/02 03:42:37;;;;;;;77.17;49.00;;;;;;;8.59;28.67;94844.72;5060080;28;20060;-53
2020/12/02 03:45:09;;;;;;;68.70;45.43;;;;;;;8.50;28.38;94846.28;5078068;28;20048;-52
2020/12/02 03:47:37;;;;;;;70.60;46.27;;;;;;;8.75;28.28;94837.66;5077824;28;20052;-54
2020/12/02 03:50:05;;;;;;;79.97;51.57;;;;;;;8.61;28.58;94847.84;5077902;28;20478;-55
2020/12/02 03:52:33;;;;;;;71.97;46.97;;;;;;;8.41;27.89;94841.84;5077832;28;20359;-53
2020/12/02 03:55:00;;;;;;;75.73;48.53;;;;;;;8.48;28.40;94832.72;5072035;28;20049;-52
2020/12/02 03:57:28;;;;;;;78.68;48.72;;;;;;;8.56;28.24;94840.00;5068129;28;20056;-52
2020/12/02 03:59:55;;;;;;;78.30;48.70;;;;;;;8.55;28.19;94843.66;5077756;28;20048;-52
2020/12/02 04:02:22;;;;;;;74.83;47.47;;;;;;;8.53;27.93;94837.16;5077784;28;20048;-51
2020/12/02 04:04:49;;;;;;;76.88;48.78;;;;;;;8.51;28.02;94842.63;5077520;28;20048;-52
2020/12/02 04:07:16;;;;;;;75.87;49.70;;;;;;;8.65;27.63;94846.28;5077194;28;20052;-53
2020/12/02 04:09:43;;;;;;;73.67;46.77;;;;;;;8.19;27.69;94847.28;5077244;28;20056;-52
2020/12/02 04:12:10;;;;;;;80.23;51.67;;;;;;;8.19;28.50;94852.47;5077298;28;20052;-53
2020/12/02 04:14:37;;;;;;;79.55;51.00;;;;;;;8.49;27.80;94847.31;5077210;28;20049;-52
2020/12/02 04:17:04;;;;;;;77.53;49.33;;;;;;;8.05;27.60;94855.56;5077288;28;20079;-52
2020/12/02 04:19:31;;;;;;;79.63;49.90;;;;;;;8.16;27.61;94848.56;5077392;28;20056;-52
2020/12/02 04:21:58;;;;;;;81.20;48.47;;;;;;;8.10;27.75;94848.84;5077610;28;20052;-52
2020/12/02 04:24:26;;;;;;;76.67;48.93;;;;;;;8.45;27.65;94854.09;5077460;28;20056;-52
2020/12/02 04:26:53;;;;;;;79.80;50.40;;;;;;;8.63;26.29;94856.19;5076931;28;20044;-52
2020/12/02 04:29:20;;;;;;;80.17;50.20;;;;;;;8.36;27.45;94845.25;5076180;28;20052;-54
2020/12/02 04:31:47;;;;;;;80.93;48.60;;;;;;;8.45;28.32;94843.66;5077330;28;20340;-54
2020/12/02 04:34:15;;;;;;;74.57;49.67;;;;;;;8.39;26.73;94849.94;5077135;28;20067;-52
2020/12/02 04:36:47;;;;;;;74.85;46.72;;;;;;;8.69;27.66;94849.13;5076660;28;20060;-54
2020/12/02 04:39:15;;;;;;;71.30;43.95;;;;;;;9.14;27.61;94848.28;5076916;28;20051;-49
2020/12/02 04:41:43;;;;;;;67.45;43.17;;;;;;;9.05;26.78;94854.28;5074822;28;20348;-52
2020/12/02 04:44:10;;;;;;;73.60;46.10;;;;;;;8.58;26.49;94843.13;5076074;28;20067;-53
2020/12/02 04:46:38;;;;;;;71.17;45.80;;;;;;;8.37;27.14;94861.66;5057295;28;20135;-52
2020/12/02 04:49:19;;;;;;;73.40;45.75;;;;;;;8.65;27.57;94853.31;5056856;28;20048;-52
2020/12/02 04:51:50;;;;;;;68.00;42.38;;;;;;;8.95;27.75;94862.94;5056903;28;20371;-54
2020/12/02 04:54:18;;;;;;;67.78;42.75;;;;;;;9.34;26.79;94864.91;5056722;28;20045;-52
2020/12/02 04:56:49;;;;;;;61.42;42.10;;;;;;;9.00;26.12;94864.75;5059844;28;20054;-49
2020/12/02 04:59:16;;;;;;;63.23;43.00;;;;;;;8.40;27.43;94866.34;5076218;28;20051;-51
2020/12/02 05:01:52;;;;;;;65.97;40.80;;;;;;;8.26;27.21;94858.22;5061789;28;20049;-51
2020/12/02 05:04:24;;;;;;;63.77;40.23;;;;;;;8.71;27.57;94861.91;5056636;28;20048;-52
2020/12/02 05:07:14;;;;;;;63.30;40.30;;;;;;;9.19;26.62;94853.50;5059701;28;20048;-52
2020/12/02 05:10:08;;;;;;;64.37;41.33;;;;;;;8.21;26.46;94866.03;5076415;28;20048;-54
2020/12/02 05:12:42;;;;;;;63.00;42.30;;;;;;;8.44;26.87;94860.34;5075924;28;20060;-55
2020/12/02 05:15:27;;;;;;;64.30;41.83;;;;;;;8.44;27.51;94868.16;5076396;28;20374;-54
2020/12/02 05:18:15;;;;;;;61.83;39.37;;;;;;;8.04;27.15;94868.84;5076089;28;20056;-52
2020/12/02 05:20:42;;;;;;;65.73;41.60;;;;;;;8.40;27.90;94867.13;5076006;28;20051;-53
2020/12/02 05:23:21;;;;;;;58.67;38.03;;;;;;;8.59;27.32;94865.56;5069638;28;20071;-55
2020/12/02 05:25:48;;;;;;;63.83;39.60;;;;;;;8.59;26.77;94865.56;5056014;28;20360;-53
2020/12/02 05:28:25;;;;;;;60.47;40.97;;;;;;;8.51;27.92;94878.31;5056139;28;20045;-53
2020/12/02 05:31:13;;;;;;;61.03;40.67;;;;;;;8.47;27.55;94872.84;5055853;28;20052;-53
2020/12/02 05:33:40;;;;;;;61.83;40.00;;;;;;;8.12;27.10;94870.19;5056165;28;20057;-53
2020/12/02 05:36:21;;;;;;;58.30;40.37;;;;;;;7.83;26.71;94883.66;5055710;28;20057;-50
2020/12/02 05:38:54;;;;;;;59.00;39.33;;;;;;;8.14;27.88;94889.72;5054907;28;20660;-55
2020/12/02 05:41:22;;;;;;;62.60;40.83;;;;;;;8.05;27.94;94893.84;5055360;28;20367;-51
2020/12/02 05:44:14;;;;;;;65.90;39.70;;;;;;;8.32;26.63;94891.81;5038393;28;20376;-53
2020/12/02 05:46:59;;;;;;;64.40;41.27;;;;;;;7.99;27.16;94898.28;5042260;28;20448;-52
2020/12/02 05:49:57;;;;;;;60.03;40.77;;;;;;;7.51;28.94;94911.63;5058665;28;20056;-54
2020/12/02 05:52:29;;;;;;;65.47;41.67;;;;;;;7.67;28.78;94910.66;5075101;28;20052;-65
2020/12/02 05:55:19;;;;;;;66.77;44.70;;;;;;;7.35;28.65;94919.34;5037771;28;20052;-47
2020/12/02 05:58:10;;;;;;;63.07;41.87;;;;;;;7.52;28.47;94915.78;5042252;28;20489;-49
2020/12/02 06:00:37;;;;;;;64.00;40.73;;;;;;;6.49;29.19;94916.91;5055587;28;20439;-50
2020/12/02 06:03:06;;;;;;;74.20;47.10;;;;;;;6.13;30.22;94922.81;5055643;28;20048;-53
2020/12/02 06:05:33;;;;;;;69.53;45.93;;;;;;;5.96;31.10;94928.06;5068938;28;20348;-50
2020/12/02 06:08:02;;;;;;;73.90;49.83;;;;;;;6.10;31.92;94925.91;5074943;28;20052;-51
2020/12/02 06:10:41;;;;;;;69.83;47.77;;;;;;;6.95;34.21;94929.50;5075075;28;20052;-50
2020/12/02 06:13:17;;;;;;;99.90;66.70;;;;;;;7.84;28.77;94929.47;5055539;28;20080;-51
2020/12/02 06:15:44;;;;;;;99.97;68.03;;;;;;;7.83;28.63;94920.09;5069790;28;20044;-52
2020/12/02 06:18:30;;;;;;;87.37;58.47;;;;;;;8.16;28.56;94923.31;5074331;28;20040;-52
2020/12/02 06:20:57;;;;;;;88.83;58.10;;;;;;;8.21;28.63;94928.53;5074891;28;20056;-47
2020/12/02 06:23:40;;;;;;;85.20;56.25;;;;;;;8.64;28.39;94930.72;5057702;28;20052;-54
2020/12/02 06:26:07;;;;;;;86.67;54.57;;;;;;;9.31;27.06;94917.63;5055314;28;20045;-49
2020/12/02 06:28:34;;;;;;;81.00;51.60;;;;;;;9.78;26.71;94933.69;5060329;28;20286;-52
2020/12/02 06:31:27;;;;;;;84.38;56.55;;;;;;;9.69;26.91;94940.50;5075426;28;20063;-51
2020/12/02 06:33:55;;;;;;;79.15;52.70;;;;;;;9.77;26.97;94931.34;5064694;28;20452;-51
2020/12/02 06:36:31;;;;;;;76.15;52.72;;;;;;;10.48;26.39;94934.44;5054387;28;20053;-51
2020/12/02 06:39:28;;;;;;;71.43;48.58;;;;;;;10.64;26.18;94939.53;5063074;28;20056;-54
2020/12/02 06:41:55;;;;;;;66.07;47.95;;;;;;;10.94;25.90;94939.34;5057804;28;20052;-51
2020/12/02 06:44:57;;;;;;;69.40;47.58;;;;;;;10.97;25.53;94940.63;5063433;28;20056;-53
2020/12/02 06:47:26;;;;;;;64.00;44.42;;;;;;;11.02;25.60;94941.38;5055020;28;20363;-52
2020/12/02 06:49:56;;;;;;;64.72;45.20;;;;;;;11.08;25.30;94940.25;5070058;28;20431;-54
2020/12/02 06:52:29;;;;;;;62.17;42.88;;;;;;;11.04;25.84;94935.84;5076127;28;20052;-51
2020/12/02 06:55:00;;;;;;;;;;;;;;;11.30;25.73;94939.81;5079629;28;20048;-52
2020/12/02 06:57:30;;;;;;;62.20;44.53;;;;;;;11.34;25.43;94938.19;5059145;28;20288;-51
2020/12/02 07:00:05;;;;;;;58.70;43.53;;;;;;;11.45;25.64;94938.91;5074445;28;20048;-51
2020/12/02 07:02:46;;;;;;;63.78;45.30;;;;;;;11.43;25.09;94935.75;5078978;28;20052;-52
2020/12/02 07:05:40;;;;;;;71.57;49.80;;;;;;;11.49;25.88;94941.72;5061423;28;20044;-54
2020/12/02 07:08:27;;;;;;;73.70;48.83;;;;;;;11.81;25.56;94941.16;5078725;28;20478;-54
2020/12/02 07:11:10;;;;;;;67.35;49.13;;;;;;;11.70;25.62;94940.44;5078469;28;20059;-51
2020/12/02 07:13:41;;;;;;;65.82;45.22;;;;;;;11.78;25.53;94944.31;5078941;28;20059;-52
2020/12/02 07:16:21;;;;;;;61.55;43.50;;;;;;;12.30;24.91;94933.75;5076106;28;20055;-54
2020/12/02 07:18:57;;;;;;;71.43;48.40;;;;;;;12.21;24.80;94939.88;5064001;28;20056;-54
2020/12/02 07:21:33;;;;;;;73.50;49.63;;;;;;;12.11;24.91;94932.16;5078717;28;20048;-52
2020/12/02 07:24:02;;;;;;;75.28;52.58;;;;;;;12.18;24.92;94941.22;5078668;28;20052;-53
2020/12/02 07:26:30;;;;;;;76.32;54.55;;;;;;;12.47;24.75;94935.84;5060904;28;20428;-51
2020/12/02 07:29:11;;;;;;;84.45;57.85;;;;;;;12.44;24.52;94943.50;5078162;28;20451;-52
2020/12/02 07:31:38;;;;;;;87.18;58.28;;;;;;;13.13;23.87;94939.34;5048868;28;20045;-55
2020/12/02 07:34:14;;;;;;;89.78;59.03;;;;;;;13.08;23.76;94936.81;5057563;28;20057;-54
2020/12/02 07:36:42;;;;;;;87.78;58.10;;;;;;;13.13;24.08;94939.34;5058325;28;20049;-56
2020/12/02 07:39:16;;;;;;;80.60;56.28;;;;;;;13.02;24.08;94943.97;5065711;28;20463;-53
2020/12/02 07:41:50;;;;;;;88.57;56.60;;;;;;;13.29;23.95;94937.28;5067889;28;20375;-53
2020/12/02 07:44:18;;;;;;;82.30;57.13;;;;;;;13.42;24.09;94953.03;5058278;28;20057;-52
2020/12/02 07:46:47;;;;;;;78.18;55.90;;;;;;;13.41;23.73;94951.50;5040520;28;20041;-55
2020/12/02 07:49:14;;;;;;;76.93;54.67;;;;;;;13.34;23.52;94950.31;5066016;28;20052;-54
2020/12/02 07:51:49;;;;;;;75.50;54.58;;;;;;;13.53;23.91;94949.19;5060591;28;20119;-52
2020/12/02 07:54:20;;;;;;;85.30;60.05;;;;;;;13.73;23.66;94947.25;5060567;28;20477;-51
2020/12/02 07:56:49;;;;;;;80.63;59.22;;;;;;;13.60;23.56;94948.81;5043993;28;20060;-52
2020/12/02 07:59:22;;;;;;;84.82;59.00;;;;;;;13.83;24.01;94949.69;5039928;28;20045;-54
2020/12/02 08:01:57;;;;;;;71.93;52.67;;;;;;;13.70;23.73;94948.59;5058035;28;20337;-52
2020/12/02 08:04:28;;;;;;;73.13;52.38;;;;;;;13.69;23.88;94951.53;5056568;28;20064;-56
2020/12/02 08:06:58;;;;;;;63.38;47.88;;;;;;;13.85;23.20;94950.19;5057842;28;20052;-52
2020/12/02 08:09:25;;;;;;;68.32;49.83;;;;;;;13.74;23.58;94954.06;5057380;28;20057;-52
2020/12/02 08:11:59;;;;;;;65.90;49.95;;;;;;;13.50;23.78;94949.75;5056798;28;20060;-52
2020/12/02 08:14:33;;;;;;;68.47;51.08;;;;;;;14.22;23.51;94953.66;5041245;28;20337;-52
2020/12/02 08:17:20;;;;;;;68.82;49.95;;;;;;;14.56;22.38;94955.84;5062164;28;20053;-52
2020/12/02 08:19:51;;;;;;;59.38;44.58;;;;;;;14.62;22.57;94952.84;5069093;28;20127;-53
2020/12/02 08:22:34;;;;;;;71.45;52.90;;;;;;;14.77;22.41;94955.13;5060037;28;20044;-53
2020/12/02 08:25:19;;;;;;;71.82;53.63;;;;;;;14.54;22.51;94948.25;5064706;28;20052;-53
2020/12/02 08:27:50;;;;;;;75.70;56.65;;;;;;;14.84;22.67;94949.47;5057588;28;20048;-57
2020/12/02 08:30:21;;;;;;;74.05;54.45;;;;;;;14.87;22.49;94958.63;5072653;28;20059;-57
2020/12/02 08:32:54;;;;;;;80.10;58.72;;;;;;;14.73;22.51;94954.16;5077230;28;20059;-54
2020/12/02 08:35:24;;;;;;;73.90;55.58;;;;;;;14.74;22.46;94957.56;5077366;28;20056;-52
2020/12/02 08:37:53;;;;;;;80.72;58.28;;;;;;;14.91;22.12;94949.03;5077194;28;20055;-55
2020/12/02 08:40:28;;;;;;;74.03;54.42;;;;;;;15.22;21.61;94944.59;5076830;28;20048;-54
2020/12/02 08:43:14;;;;;;;74.95;54.15;;;;;;;15.09;22.02;94945.44;5066168;28;20375;-52
2020/12/02 08:46:14;;;;;;;79.53;57.97;;;;;;;14.97;22.62;94943.34;5077081;28;20060;-51
2020/12/02 08:48:43;;;;;;;80.93;61.30;;;;;;;15.15;22.50;94944.25;5068511;28;20108;-55
2020/12/02 08:51:17;;;;;;;82.80;62.83;;;;;;;15.34;22.33;94944.81;5077093;28;20063;-56
2020/12/02 08:53:44;;;;;;;82.63;61.83;;;;;;;15.15;22.14;94939.00;5077001;28;20466;-54
2020/12/02 08:56:40;;;;;;;80.95;59.58;;;;;;;15.43;21.98;94940.38;5076882;28;20056;-52
2020/12/02 08:59:14;;;;;;;74.93;56.28;;;;;;;15.24;22.11;94942.44;5048838;28;20044;-54
2020/12/02 09:01:41;;;;;;;108.68;81.75;;;;;;;15.16;22.49;94935.28;5076846;28;20086;-54
2020/12/02 09:04:08;;;;;;;125.38;98.15;;;;;;;14.71;22.78;94951.06;5076774;28;20379;-53
2020/12/02 09:06:36;;;;;;;118.28;89.88;;;;;;;15.11;23.21;94943.31;5076606;28;20048;-53
2020/12/02 09:09:04;;;;;;;122.03;93.68;;;;;;;15.06;22.68;94940.75;5076245;28;20044;-52
2020/12/02 09:11:37;;;;;;;126.53;96.93;;;;;;;15.05;23.32;94939.22;5076213;28;20094;-54
2020/12/02 09:14:05;;;;;;;112.80;86.13;;;;;;;14.93;22.66;94931.09;5076654;28;20057;-51
2020/12/02 09:16:36;;;;;;;123.18;93.18;;;;;;;15.24;22.49;94926.63;5076021;28;20555;-53
2020/12/02 09:19:05;;;;;;;118.25;90.40;;;;;;;15.08;22.91;94928.06;5058351;28;20455;-51
2020/12/02 09:21:32;;;;;;;119.85;92.53;;;;;;;15.54;22.52;94929.56;5058968;28;20364;-55
2020/12/02 09:24:00;;;;;;;110.28;85.35;;;;;;;16.18;21.67;94930.00;5076394;28;20048;-54
2020/12/02 09:26:30;;;;;;;113.68;87.50;;;;;;;15.67;22.53;94918.22;5059739;28;20045;-56
2020/12/02 09:28:58;;;;;;;111.40;85.05;;;;;;;15.68;22.03;94914.50;5058692;28;20054;-53
2020/12/02 09:31:27;;;;;;;92.38;71.13;;;;;;;15.74;22.26;94905.34;5076235;28;20052;-52
2020/12/02 09:33:55;;;;;;;106.38;80.57;;;;;;;15.66;22.43;94906.09;5076158;28;20053;-54
2020/12/02 09:36:23;;;;;;;105.15;82.70;;;;;;;16.30;22.21;94909.06;5075797;28;20048;-54
2020/12/02 09:38:52;;;;;;;105.22;82.53;;;;;;;15.46;22.79;94901.34;5041487;28;20048;-54
2020/12/02 09:41:28;;;;;;;73.68;57.60;;;;;;;16.48;21.81;94900.09;5076012;28;20067;-55
2020/12/02 09:44:20;;;;;;;58.92;45.28;;;;;;;16.43;21.61;94892.31;5072309;28;20060;-53
2020/12/02 09:46:54;;;;;;;56.63;42.55;;;;;;;17.10;20.82;94897.09;5055917;28;20056;-55
2020/12/02 09:49:21;;;;;;;51.53;39.70;;;;;;;17.19;21.20;94891.81;5060877;28;20049;-57
2020/12/02 09:52:16;;;;;;;49.65;38.97;;;;;;;17.03;20.93;94883.63;5075839;28;20451;-52
2020/12/02 09:54:45;;;;;;;50.13;39.67;;;;;;;17.05;20.54;94876.16;5067653;28;20052;-52
2020/12/02 09:57:28;;;;;;;50.38;39.45;;;;;;;16.59;21.34;94880.19;5075688;28;20045;-55
2020/12/02 09:59:57;;;;;;;52.05;39.33;;;;;;;17.07;21.30;94873.97;5075357;28;20475;-54
2020/12/02 10:02:36;;;;;;;50.13;39.80;;;;;;;17.04;20.92;94869.31;5075713;28;20059;-55
2020/12/02 10:05:27;;;;;;;50.13;40.05;;;;;;;17.29;20.54;94864.28;5066923;28;20049;-54
2020/12/02 10:08:13;;;;;;;48.67;37.42;;;;;;;17.21;21.19;94864.00;5060088;28;20057;-56
2020/12/02 10:10:49;;;;;;;49.42;38.17;;;;;;;17.25;20.89;94854.34;5074613;28;20365;-54
2020/12/02 10:13:29;;;;;;;46.03;37.65;;;;;;;17.21;20.57;94852.66;5075503;28;20055;-57
2020/12/02 10:16:26;;;;;;;47.78;36.85;;;;;;;17.39;20.75;94848.06;5057910;28;20040;-55
2020/12/02 10:19:00;;;;;;;42.75;34.95;;;;;;;17.45;20.72;94846.81;5057286;28;20056;-55
2020/12/02 10:21:46;;;;;;;43.25;35.08;;;;;;;17.53;20.88;94843.34;5057762;28;20386;-56
2020/12/02 10:24:31;;;;;;;46.00;34.92;;;;;;;17.51;20.58;94834.97;5075345;28;20056;-55
2020/12/02 10:27:17;;;;;;;49.83;37.13;;;;;;;17.45;20.71;94836.25;5074623;28;20041;-56
2020/12/02 10:30:09;;;;;;;41.42;35.25;;;;;;;17.52;20.83;94832.00;5057241;28;20052;-56
2020/12/02 10:32:56;;;;;;;46.00;35.03;;;;;;;17.62;20.76;94836.16;5057602;28;20355;-57
2020/12/02 10:35:25;;;;;;;44.97;36.33;;;;;;;17.52;20.91;94820.66;5075239;28;20447;-55
2020/12/02 10:37:58;;;;;;;43.55;35.25;;;;;;;17.77;20.68;94817.13;5075156;28;20052;-53
2020/12/02 10:40:27;;;;;;;45.63;34.20;;;;;;;17.48;20.73;94819.75;5074241;28;20056;-53
2020/12/02 10:43:00;;;;;;;39.85;33.85;;;;;;;17.69;20.31;94825.88;5075071;28;20048;-54
2020/12/02 10:45:28;;;;;;;40.95;33.35;;;;;;;17.35;21.30;94816.22;5057626;28;20052;-54
2020/12/02 10:48:26;;;;;;;39.70;33.60;;;;;;;17.73;20.67;94815.47;5075166;28;20044;-56
2020/12/02 10:50:53;;;;;;;42.30;32.75;;;;;;;17.94;20.27;94797.72;5056959;28;20051;-54
2020/12/02 10:53:25;;;;;;;41.72;34.53;;;;;;;17.80;20.33;94805.91;5069101;28;20075;-57
2020/12/02 10:55:53;;;;;;;42.60;34.13;;;;;;;17.78;20.65;94808.09;5055334;28;20052;-53
2020/12/02 10:58:26;;;;;;;41.05;31.92;;;;;;;17.95;20.66;94803.78;5055010;28;20049;-57
2020/12/02 11:00:56;;;;;;;42.50;32.58;;;;;;;18.08;20.40;94805.44;5054586;28;20053;-56
2020/12/02 11:03:35;;;;;;;39.60;31.90;;;;;;;18.32;20.66;94794.97;5055021;28;20079;-54
2020/12/02 11:06:42;;;;;;;38.63;32.53;;;;;;;18.29;20.14;94803.56;5054942;28;20067;-53
2020/12/02 11:09:33;;;;;;;41.92;34.05;;;;;;;18.27;20.37;94787.22;5042505;28;20052;-53
2020/12/02 11:12:22;;;;;;;48.05;36.85;;;;;;;18.27;20.91;94800.47;5074468;28;20053;-57
2020/12/02 11:15:04;;;;;;;117.72;93.30;;;;;;;18.07;21.05;94798.59;5075035;28;20068;-54
2020/12/02 11:17:38;;;;;;;70.97;55.33;;;;;;;18.37;20.65;94797.41;5074748;28;20053;-52
2020/12/02 11:20:15;;;;;;;89.97;74.35;;;;;;;17.82;21.51;94795.03;5074339;28;20056;-53
2020/12/02 11:23:01;;;;;;;79.30;62.08;;;;;;;17.86;20.98;94794.06;5057069;28;20055;-52
2020/12/02 11:25:43;;;;;;;104.40;83.68;;;;;;;17.39;22.02;94788.06;5062986;28;20487;-55
2020/12/02 11:28:11;;;;;;;103.43;78.90;;;;;;;17.04;22.17;94787.44;5054796;28;20112;-53
2020/12/02 11:30:41;;;;;;;93.05;76.30;;;;;;;16.82;22.63;94771.81;5065199;28;20052;-55
2020/12/02 11:33:14;;;;;;;92.68;73.20;;;;;;;17.01;22.17;94777.50;5054697;28;20048;-55
2020/12/02 11:36:18;;;;;;;92.40;72.93;;;;;;;17.04;22.44;94774.22;5054692;28;20407;-56
2020/12/02 11:38:45;;;;;;;;;;;;;;;17.27;22.45;94772.91;5056276;28;20060;-58
2020/12/02 11:41:48;;;;;;;104.65;78.38;;;;;;;17.02;22.65;94776.41;5075130;28;20238;-55
2020/12/02 11:44:42;;;;;;;98.70;77.70;;;;;;;16.71;22.77;94775.88;5061240;28;20048;-54
2020/12/02 11:47:16;;;;;;;86.95;65.13;;;;;;;16.40;23.15;94776.06;5077961;28;20056;-55
2020/12/02 11:49:53;;;;;;;94.63;73.10;;;;;;;16.52;23.03;94784.13;5077812;28;20055;-55